createdAt,value
2023-04-16T00:00:28.449Z,100908.59
2023-04-16T00:05:30.769Z,100920.50
2023-04-16T00:10:32.977Z,100926.00
2023-04-16T00:15:35.043Z,100921.00
2023-04-16T00:20:37.169Z,100918.91
2023-04-16T00:25:39.097Z,100917.59
2023-04-16T00:30:41.402Z,100930.59
2023-04-16T00:35:46.782Z,100937.03
2023-04-16T00:40:49.122Z,100934.34
2023-04-16T00:45:52.863Z,100935.59
2023-04-16T00:50:55.657Z,100928.38
2023-04-16T00:55:58.097Z,100934.91
2023-04-16T01:01:00.652Z,100928.19
2023-04-16T01:06:03.146Z,100935.75
2023-04-16T01:11:06.232Z,100923.59
2023-04-16T01:16:10.823Z,100920.31
2023-04-16T01:21:13.217Z,100917.91
2023-04-16T01:26:15.622Z,100918.94
2023-04-16T01:31:17.750Z,100915.69
2023-04-16T01:36:35.568Z,100917.47
2023-04-16T01:41:37.718Z,100913.38
2023-04-16T01:46:40.031Z,100917.09
2023-04-16T01:51:42.324Z,100917.19
2023-04-16T01:56:45.605Z,100916.56
2023-04-16T02:01:47.779Z,100914.13
2023-04-16T02:06:50.126Z,100911.50
2023-04-16T02:11:52.179Z,100924.53
2023-04-16T02:16:54.486Z,100911.06
2023-04-16T02:22:10.665Z,100920.97
2023-04-16T02:27:12.777Z,100925.59
2023-04-16T02:32:18.524Z,100918.00
2023-04-16T02:37:22.143Z,100918.97
2023-04-16T02:42:25.169Z,100932.41
2023-04-16T02:47:27.413Z,100925.72
2023-04-16T02:52:29.618Z,100936.53
2023-04-16T02:57:31.801Z,100937.69
2023-04-16T03:02:34.078Z,100943.13
2023-04-16T03:07:36.365Z,100934.31
2023-04-16T03:12:39.313Z,100942.28
2023-04-16T03:17:42.306Z,100941.34
2023-04-16T03:22:44.941Z,100931.88
2023-04-16T03:27:48.257Z,100940.19
2023-04-16T03:32:52.143Z,100945.69
2023-04-16T03:37:54.469Z,100947.25
2023-04-16T03:42:56.736Z,100946.09
2023-04-16T03:47:58.990Z,100936.22
2023-04-16T03:53:01.704Z,100946.63
2023-04-16T03:58:05.069Z,100945.16
2023-04-16T04:03:08.467Z,100949.88
2023-04-16T04:08:11.257Z,100952.50
2023-04-16T04:13:13.642Z,100947.13
2023-04-16T04:18:16.568Z,100947.28
2023-04-16T04:23:19.382Z,100945.97
2023-04-16T04:28:22.516Z,100946.13
2023-04-16T04:33:25.706Z,100943.06
2023-04-16T04:38:27.960Z,100940.72
2023-04-16T04:43:30.189Z,100932.84
2023-04-16T04:48:32.320Z,100930.47
2023-04-16T04:53:35.051Z,100929.59
2023-04-16T04:58:37.267Z,100926.53
2023-04-16T05:03:39.716Z,100927.47
2023-04-16T05:08:41.898Z,100940.72
2023-04-16T05:13:43.876Z,100942.38
2023-04-16T05:18:46.123Z,100937.09
2023-04-16T05:23:48.381Z,100935.00
2023-04-16T05:28:50.587Z,100943.53
2023-04-16T05:33:52.789Z,100933.69
2023-04-16T05:38:55.074Z,100928.19
2023-04-16T05:43:57.276Z,100927.19
2023-04-16T05:48:59.531Z,100926.53
2023-04-16T05:54:01.879Z,100925.06
2023-04-16T05:59:03.911Z,100930.09
2023-04-16T06:04:06.314Z,100927.34
2023-04-16T06:09:08.902Z,100921.28
2023-04-16T06:14:11.328Z,100909.09
2023-04-16T06:19:13.412Z,100912.25
2023-04-16T06:24:15.639Z,100907.16
2023-04-16T06:29:17.780Z,100904.94
2023-04-16T06:34:19.950Z,100906.97
2023-04-16T06:39:22.086Z,100909.38
2023-04-16T06:44:24.282Z,100905.13
2023-04-16T06:49:26.434Z,100899.69
2023-04-16T06:54:28.647Z,100891.66
2023-04-16T06:59:30.996Z,100891.69
2023-04-16T07:04:33.069Z,100885.94
2023-04-16T07:09:35.409Z,100874.16
2023-04-16T07:14:37.606Z,100882.97
2023-04-16T07:19:39.684Z,100891.84
2023-04-16T07:24:41.935Z,100881.53
2023-04-16T07:29:45.765Z,100886.19
2023-04-16T07:34:48.018Z,100879.75
2023-04-16T07:39:50.129Z,100856.56
2023-04-16T07:44:52.287Z,100883.53
2023-04-16T07:49:54.436Z,100888.09
2023-04-16T07:54:56.623Z,100889.56
2023-04-16T07:59:58.852Z,100869.03
2023-04-16T08:05:01.083Z,100871.72
2023-04-16T08:10:03.390Z,100872.28
2023-04-16T08:15:08.482Z,100862.31
2023-04-16T08:20:13.024Z,100855.97
2023-04-16T08:25:17.254Z,100847.28
2023-04-16T08:30:19.686Z,100844.72
2023-04-16T08:35:21.900Z,100834.59
2023-04-16T08:40:28.769Z,100823.34
2023-04-16T08:45:35.141Z,100837.66
2023-04-16T08:50:37.666Z,100827.88
2023-04-16T08:55:43.722Z,100821.59
2023-04-16T09:00:46.503Z,100807.38
2023-04-16T09:05:49.749Z,100820.56
2023-04-16T09:10:52.034Z,100808.63
2023-04-16T09:15:54.751Z,100809.00
2023-04-16T09:20:57.331Z,100796.06
2023-04-16T09:25:59.890Z,100798.53
2023-04-16T09:31:09.378Z,100816.59
2023-04-16T09:36:11.705Z,100792.63
2023-04-16T09:41:16.410Z,100776.94
2023-04-16T09:46:18.670Z,100778.00
2023-04-16T09:51:20.952Z,100779.72
2023-04-16T09:56:30.446Z,100789.50
2023-04-16T10:01:32.954Z,100775.53
2023-04-16T10:06:35.086Z,100775.75
2023-04-16T10:11:37.870Z,100781.06
2023-04-16T10:16:41.254Z,100771.81
2023-04-16T10:21:43.550Z,100773.13
2023-04-16T10:26:47.014Z,100769.25
2023-04-16T10:31:50.566Z,100775.31
2023-04-16T10:36:54.705Z,100758.44
2023-04-16T10:42:13.414Z,100780.16
2023-04-16T10:47:15.770Z,100761.19
2023-04-16T10:52:18.068Z,100771.34
2023-04-16T10:57:20.758Z,100753.84
2023-04-16T11:02:29.234Z,100756.16
2023-04-16T11:07:35.328Z,100759.00
2023-04-16T11:12:39.899Z,100737.16
2023-04-16T11:17:48.416Z,100741.69
2023-04-16T11:22:52.135Z,100731.66
2023-04-16T11:27:54.903Z,100723.19
2023-04-16T11:32:57.335Z,100736.13
2023-04-16T11:37:59.733Z,100694.78
2023-04-16T11:43:04.064Z,100732.75
2023-04-16T11:48:07.314Z,100697.38
2023-04-16T11:53:10.393Z,100698.47
2023-04-16T11:58:16.612Z,100695.06
2023-04-16T12:03:37.657Z,100687.59
2023-04-16T12:08:40.078Z,100693.94
2023-04-16T12:13:42.194Z,100666.19
2023-04-16T12:19:01.408Z,100666.47
2023-04-16T12:24:03.852Z,100656.91
2023-04-16T12:29:26.021Z,100647.78
2023-04-16T12:34:46.587Z,100666.69
2023-04-16T12:39:50.188Z,100638.38
2023-04-16T12:44:52.305Z,100638.59
2023-04-16T12:49:54.348Z,100629.72
2023-04-16T12:54:56.531Z,100629.00
2023-04-16T12:59:59.006Z,100622.13
2023-04-16T13:05:01.651Z,100612.97
2023-04-16T13:10:06.651Z,100614.06
2023-04-16T13:15:09.606Z,100606.75
2023-04-16T13:20:11.956Z,100611.19
2023-04-16T13:25:14.203Z,100608.50
2023-04-16T13:30:16.491Z,100588.22
2023-04-16T13:35:18.761Z,100583.41
2023-04-16T13:40:21.148Z,100579.91
2023-04-16T13:45:23.387Z,100574.41
2023-04-16T13:50:25.591Z,100575.81
2023-04-16T13:55:27.961Z,100575.88
2023-04-16T14:00:30.192Z,100578.06
2023-04-16T14:05:32.372Z,100563.59
2023-04-16T14:10:35.257Z,100568.50
2023-04-16T14:15:37.399Z,100560.97
2023-04-16T14:20:40.131Z,100561.03
2023-04-16T14:25:42.221Z,100564.31
2023-04-16T14:30:44.438Z,100568.56
2023-04-16T14:35:46.718Z,100561.13
2023-04-16T14:40:49.114Z,100559.56
2023-04-16T14:45:51.319Z,100558.41
2023-04-16T14:50:54.032Z,100558.22
2023-04-16T14:55:59.094Z,100561.66
2023-04-16T15:01:01.371Z,100550.16
2023-04-16T15:06:03.634Z,100555.69
2023-04-16T15:11:05.894Z,100556.66
2023-04-16T15:16:08.103Z,100553.31
2023-04-16T15:21:12.400Z,100545.81
2023-04-16T15:26:15.009Z,100523.69
2023-04-16T15:31:17.152Z,100551.97
2023-04-16T15:36:20.010Z,100539.41
2023-04-16T15:41:22.574Z,100552.38
2023-04-16T15:46:24.770Z,100553.81
2023-04-16T15:51:29.420Z,100524.44
2023-04-16T15:56:31.734Z,100543.91
2023-04-16T16:01:33.960Z,100552.31
2023-04-16T16:06:41.892Z,100546.38
2023-04-16T16:11:44.052Z,100543.56
2023-04-16T16:16:46.271Z,100552.44
2023-04-16T16:21:48.424Z,100544.44
2023-04-16T16:26:50.761Z,100543.13
2023-04-16T16:31:53.032Z,100540.88
2023-04-16T16:36:55.180Z,100553.91
2023-04-16T16:41:57.613Z,100559.28
2023-04-16T16:46:59.925Z,100554.31
2023-04-16T16:52:02.177Z,100554.13
2023-04-16T16:57:04.286Z,100552.13
2023-04-16T17:02:06.679Z,100554.69
2023-04-16T17:07:08.842Z,100556.13
2023-04-16T17:12:11.274Z,100551.16
2023-04-16T17:17:13.376Z,100551.06
2023-04-16T17:22:15.744Z,100559.56
2023-04-16T17:27:18.139Z,100550.13
2023-04-16T17:32:20.472Z,100556.84
2023-04-16T17:37:23.642Z,100533.19
2023-04-16T17:42:25.869Z,100541.84
2023-04-16T17:47:28.151Z,100558.00
2023-04-16T17:52:30.665Z,100557.34
2023-04-16T17:57:32.921Z,100553.38
2023-04-16T18:02:35.315Z,100542.22
2023-04-16T18:07:39.098Z,100554.69
2023-04-16T18:12:41.256Z,100539.22
2023-04-16T18:17:43.554Z,100517.25
2023-04-16T18:22:46.341Z,100537.88
2023-04-16T18:27:48.403Z,100543.88
2023-04-16T18:33:16.576Z,100522.22
2023-04-16T18:38:13.741Z,100532.06
2023-04-16T18:43:16.310Z,100529.56
2023-04-16T18:48:18.386Z,100533.91
2023-04-16T18:53:21.361Z,100526.72
2023-04-16T18:58:23.454Z,100533.41
2023-04-16T19:03:27.378Z,100531.53
2023-04-16T19:08:29.556Z,100517.09
2023-04-16T19:13:32.427Z,100514.22
2023-04-16T19:18:34.486Z,100517.59
2023-04-16T19:23:36.570Z,100512.59
2023-04-16T19:28:38.932Z,100518.09
2023-04-16T19:33:41.713Z,100515.75
2023-04-16T19:38:43.921Z,100519.75
2023-04-16T19:43:46.213Z,100517.41
2023-04-16T19:48:48.399Z,100519.09
2023-04-16T19:53:50.660Z,100509.44
2023-04-16T19:58:52.901Z,100522.09
2023-04-16T20:03:54.885Z,100534.72
2023-04-16T20:08:57.458Z,100529.06
2023-04-16T20:14:01.030Z,100530.06
2023-04-16T20:19:08.578Z,100521.41
2023-04-16T20:24:11.222Z,100522.38
2023-04-16T20:29:13.397Z,100525.72
2023-04-16T20:34:15.714Z,100527.38
2023-04-16T20:39:20.497Z,100504.78
2023-04-16T20:44:33.273Z,100520.06
2023-04-16T20:49:35.836Z,100519.41
2023-04-16T20:54:38.005Z,100514.25
2023-04-16T20:59:40.188Z,100515.09
2023-04-16T21:04:42.535Z,100512.59
2023-04-16T21:09:44.884Z,100516.06
2023-04-16T21:14:46.831Z,100510.94
2023-04-16T21:19:49.376Z,100516.53
2023-04-16T21:24:51.585Z,100518.53
2023-04-16T21:29:53.541Z,100513.25
2023-04-16T21:34:55.869Z,100521.84
2023-04-16T21:39:58.083Z,100521.66
2023-04-16T21:45:00.078Z,100528.75
2023-04-16T21:50:02.184Z,100534.63
2023-04-16T21:55:08.891Z,100535.09
2023-04-16T22:00:13.980Z,100534.53
2023-04-16T22:05:16.388Z,100525.19
2023-04-16T22:10:19.001Z,100523.84
2023-04-16T22:15:22.687Z,100530.78
2023-04-16T22:20:24.980Z,100526.50
2023-04-16T22:25:26.969Z,100523.97
2023-04-16T22:30:29.104Z,100533.28
2023-04-16T22:35:31.526Z,100522.91
2023-04-16T22:40:33.786Z,100522.22
2023-04-16T22:45:37.519Z,100522.22
2023-04-16T22:50:40.698Z,100529.72
2023-04-16T22:55:42.779Z,100523.88
2023-04-16T23:00:44.859Z,100528.41
2023-04-16T23:05:47.027Z,100529.38
2023-04-16T23:10:49.185Z,100533.66
2023-04-16T23:15:51.550Z,100524.03
2023-04-16T23:20:53.947Z,100501.03
2023-04-16T23:25:56.129Z,100519.84
2023-04-16T23:30:58.247Z,100509.03
2023-04-16T23:36:00.519Z,100517.38
2023-04-16T23:41:02.610Z,100521.16
2023-04-16T23:46:04.686Z,100508.88
2023-04-16T23:51:06.814Z,100512.47
2023-04-16T23:56:11.353Z,100514.66
